createdAt,value
2019-05-16T00:00:04.055Z,97975.69
2019-05-16T00:02:37.705Z,97975.30
2019-05-16T00:05:09.711Z,97967.09
2019-05-16T00:07:40.701Z,97968.77
2019-05-16T00:10:13.947Z,97971.22
2019-05-16T00:12:45.203Z,97959.94
2019-05-16T00:15:18.176Z,97960.05
2019-05-16T00:17:49.527Z,97965.47
2019-05-16T00:20:20.612Z,97961.80
2019-05-16T00:22:51.480Z,97966.81
2019-05-16T00:25:23.082Z,97965.87
2019-05-16T00:27:54.080Z,97968.72
2019-05-16T00:30:25.160Z,97961.83
2019-05-16T00:32:58.529Z,97960.64
2019-05-16T00:35:29.360Z,97957.20
2019-05-16T00:38:00.555Z,97953.99
2019-05-16T00:40:31.746Z,97958.86
2019-05-16T00:43:03.068Z,97950.78
2019-05-16T00:45:34.130Z,97953.23
2019-05-16T00:48:05.257Z,97944.92
2019-05-16T00:50:36.324Z,97957.58
2019-05-16T00:53:09.188Z,97956.52
2019-05-16T00:55:41.134Z,97951.18
2019-05-16T00:58:13.670Z,97946.55
2019-05-16T01:00:50.438Z,97947.97
2019-05-16T01:03:22.023Z,97946.53
2019-05-16T01:05:53.257Z,97948.67
2019-05-16T01:08:24.642Z,97949.50
2019-05-16T01:10:55.940Z,97954.73
2019-05-16T01:13:27.855Z,97948.33
2019-05-16T01:15:59.221Z,97942.03
2019-05-16T01:18:30.267Z,97943.17
2019-05-16T01:21:01.298Z,97936.17
2019-05-16T01:23:32.372Z,97923.38
2019-05-16T01:26:03.629Z,97923.16
2019-05-16T01:28:34.838Z,97919.70
2019-05-16T01:31:08.417Z,97909.97
2019-05-16T01:33:39.413Z,97908.42
2019-05-16T01:36:10.486Z,97906.05
2019-05-16T01:38:41.637Z,97908.38
2019-05-16T01:41:12.692Z,97907.35
2019-05-16T01:43:43.777Z,97907.08
2019-05-16T01:46:14.953Z,97910.20
2019-05-16T01:48:48.260Z,97902.37
2019-05-16T01:51:18.818Z,97894.65
2019-05-16T01:53:49.920Z,97892.75
2019-05-16T01:56:20.990Z,97891.80
2019-05-16T01:58:52.171Z,97890.62
2019-05-16T02:01:23.219Z,97892.99
2019-05-16T02:03:54.577Z,97897.27
2019-05-16T02:06:28.658Z,97897.82
2019-05-16T02:08:58.909Z,97900.16
2019-05-16T02:11:30.089Z,97904.70
2019-05-16T02:14:01.237Z,97905.89
2019-05-16T02:16:32.309Z,97907.91
2019-05-16T02:19:03.356Z,97906.25
2019-05-16T02:21:34.574Z,97907.55
2019-05-16T02:24:05.785Z,97899.24
2019-05-16T02:26:38.631Z,97896.03
2019-05-16T02:29:13.607Z,97898.29
2019-05-16T02:31:42.897Z,97905.06
2019-05-16T02:34:13.977Z,97907.67
2019-05-16T02:36:45.329Z,97905.66
2019-05-16T02:39:16.407Z,97899.72
2019-05-16T02:41:47.508Z,97891.61
2019-05-16T02:44:20.795Z,97898.65
2019-05-16T02:46:51.468Z,97902.33
2019-05-16T02:49:25.932Z,97902.12
2019-05-16T02:51:57.378Z,97895.72
2019-05-16T02:54:31.657Z,97891.45
2019-05-16T02:57:01.701Z,97891.33
2019-05-16T02:59:32.872Z,97894.30
2019-05-16T03:02:04.193Z,97895.28
2019-05-16T03:04:39.808Z,97891.25
2019-05-16T03:07:13.449Z,97888.60
2019-05-16T03:09:44.181Z,97892.52
2019-05-16T03:12:16.226Z,97889.19
2019-05-16T03:14:54.455Z,97890.62
2019-05-16T03:17:31.614Z,97891.29
2019-05-16T03:20:02.534Z,97884.16
2019-05-16T03:22:33.655Z,97893.19
2019-05-16T03:25:06.299Z,97895.80
2019-05-16T03:27:37.413Z,97904.82
2019-05-16T03:30:14.407Z,97899.59
2019-05-16T03:32:44.684Z,97893.78
2019-05-16T03:35:16.089Z,97894.48
2019-05-16T03:37:55.680Z,97893.66
2019-05-16T03:40:31.112Z,97890.58
2019-05-16T03:43:01.683Z,97898.65
2019-05-16T03:45:33.231Z,97903.52
2019-05-16T03:48:04.455Z,97904.82
2019-05-16T03:50:35.518Z,97905.37
2019-05-16T03:53:06.545Z,97913.80
2019-05-16T03:55:40.471Z,97917.00
2019-05-16T03:58:11.748Z,97919.09
2019-05-16T04:00:54.476Z,97924.71
2019-05-16T04:03:28.544Z,97924.71
2019-05-16T04:06:00.809Z,97936.30
2019-05-16T04:08:31.352Z,97937.77
2019-05-16T04:11:02.657Z,97924.78
2019-05-16T04:13:34.148Z,97925.50
2019-05-16T04:16:05.221Z,97939.07
2019-05-16T04:18:36.371Z,97926.20
2019-05-16T04:21:07.417Z,97934.64
2019-05-16T04:23:41.664Z,97935.87
2019-05-16T04:26:11.516Z,97934.58
2019-05-16T04:28:42.574Z,97937.19
2019-05-16T04:31:13.722Z,97933.79
2019-05-16T04:33:44.857Z,97939.25
2019-05-16T04:36:16.014Z,97941.08
2019-05-16T04:38:47.162Z,97941.95
2019-05-16T04:41:21.154Z,97951.30
2019-05-16T04:43:51.039Z,97946.90
2019-05-16T04:46:22.155Z,97946.66
2019-05-16T04:48:53.039Z,97942.98
2019-05-16T04:51:23.895Z,97946.12
2019-05-16T04:53:54.932Z,97947.61
2019-05-16T04:56:26.095Z,97943.81
2019-05-16T04:59:00.375Z,97946.55
2019-05-16T05:01:30.775Z,97949.55
2019-05-16T05:04:10.778Z,97946.20
2019-05-16T05:06:35.412Z,97946.95
2019-05-16T05:09:07.695Z,97952.80
2019-05-16T05:11:41.313Z,97962.09
2019-05-16T05:14:11.710Z,97959.28
2019-05-16T05:16:43.346Z,97957.97
2019-05-16T05:19:14.306Z,97962.25
2019-05-16T05:21:45.605Z,97966.91
2019-05-16T05:24:16.712Z,97965.48
2019-05-16T05:26:50.220Z,97962.30
2019-05-16T05:29:20.702Z,97965.06
2019-05-16T05:31:55.047Z,97956.77
2019-05-16T05:34:24.574Z,97958.56
2019-05-16T05:36:55.710Z,97961.64
2019-05-16T05:39:27.668Z,97963.56
2019-05-16T05:42:00.030Z,97970.36
2019-05-16T05:44:31.330Z,97963.34
2019-05-16T05:47:02.486Z,97962.27
2019-05-16T05:49:33.734Z,97972.77
2019-05-16T05:52:04.920Z,97978.22
2019-05-16T05:54:36.264Z,97979.66
2019-05-16T05:57:09.817Z,97986.44
2019-05-16T05:59:40.548Z,97998.33
2019-05-16T06:02:12.022Z,97983.59
2019-05-16T06:04:43.016Z,97989.99
2019-05-16T06:07:14.134Z,97986.79
2019-05-16T06:09:53.537Z,97988.57
2019-05-16T06:12:21.057Z,97980.13
2019-05-16T06:14:51.259Z,97986.66
2019-05-16T06:17:25.352Z,97987.28
2019-05-16T06:19:56.452Z,97988.20
2019-05-16T06:22:29.651Z,97985.11
2019-05-16T06:25:01.154Z,97988.09
2019-05-16T06:27:32.447Z,97982.73
2019-05-16T06:30:03.881Z,97984.14
2019-05-16T06:32:34.981Z,97985.99
2019-05-16T06:35:09.906Z,97991.94
2019-05-16T06:37:41.102Z,97996.73
2019-05-16T06:40:13.064Z,97994.77
2019-05-16T06:42:44.146Z,97990.44
2019-05-16T06:45:15.456Z,97995.80
2019-05-16T06:47:46.518Z,97992.36
2019-05-16T06:50:20.620Z,97995.24
2019-05-16T06:52:50.576Z,98001.58
2019-05-16T06:55:21.768Z,98003.86
2019-05-16T06:57:53.022Z,98010.67
2019-05-16T07:00:25.821Z,98000.84
2019-05-16T07:02:56.947Z,98008.09
2019-05-16T07:05:29.974Z,98007.20
2019-05-16T07:08:01.096Z,98014.88
2019-05-16T07:10:33.449Z,98015.84
2019-05-16T07:13:04.666Z,98017.19
2019-05-16T07:15:35.712Z,98014.63
2019-05-16T07:18:06.689Z,98019.26
2019-05-16T07:20:39.927Z,98016.61
2019-05-16T07:23:10.853Z,98017.30
2019-05-16T07:25:42.895Z,98011.00
2019-05-16T07:28:14.033Z,98012.20
2019-05-16T07:30:46.362Z,98010.60
2019-05-16T07:33:17.341Z,98001.52
2019-05-16T07:35:50.888Z,97995.55
2019-05-16T07:38:21.393Z,98002.53
2019-05-16T07:40:52.583Z,97998.98
2019-05-16T07:43:23.687Z,98003.87
2019-05-16T07:45:54.689Z,97994.65
2019-05-16T07:48:25.817Z,97999.17
2019-05-16T07:50:56.701Z,97995.73
2019-05-16T07:53:27.615Z,97997.42
2019-05-16T07:56:00.119Z,98002.58
2019-05-16T07:58:31.566Z,98001.97
2019-05-16T08:01:07.842Z,98000.26
2019-05-16T08:03:35.569Z,97999.72
2019-05-16T08:06:07.097Z,98001.72
2019-05-16T08:08:40.367Z,97998.30
2019-05-16T08:11:12.222Z,97989.24
2019-05-16T08:13:44.268Z,97994.83
2019-05-16T08:16:15.646Z,97992.35
2019-05-16T08:18:50.007Z,97992.42
2019-05-16T08:21:22.119Z,97990.36
2019-05-16T08:23:53.176Z,97993.02
2019-05-16T08:26:24.189Z,97990.67
2019-05-16T08:28:55.118Z,97988.72
2019-05-16T08:31:26.046Z,97990.03
2019-05-16T08:33:56.989Z,97994.95
2019-05-16T08:36:30.727Z,97998.28
2019-05-16T08:39:02.416Z,97990.30
2019-05-16T08:41:33.389Z,97987.59
2019-05-16T08:44:05.118Z,97997.28
2019-05-16T08:46:41.165Z,97993.42
2019-05-16T08:49:12.309Z,97996.69
2019-05-16T08:51:43.000Z,98003.20
2019-05-16T08:54:14.326Z,98000.77
2019-05-16T08:56:45.414Z,98001.94
2019-05-16T08:59:16.623Z,98002.17
2019-05-16T09:01:56.709Z,97994.31
2019-05-16T09:04:24.624Z,97997.52
2019-05-16T09:06:53.738Z,97991.88
2019-05-16T09:09:41.677Z,97994.20
2019-05-16T09:11:58.220Z,97983.72
2019-05-16T09:14:35.155Z,97982.45
2019-05-16T09:17:01.966Z,97981.00
2019-05-16T09:19:33.038Z,97983.40
2019-05-16T09:22:07.239Z,97977.47
2019-05-16T09:24:37.791Z,97978.92
2019-05-16T09:27:12.389Z,97986.06
2019-05-16T09:29:42.018Z,97986.95
2019-05-16T09:32:21.064Z,97986.56
2019-05-16T09:34:47.914Z,97983.64
2019-05-16T09:37:19.358Z,97989.75
2019-05-16T09:39:50.816Z,97984.16
2019-05-16T09:42:21.910Z,97983.84
2019-05-16T09:44:53.499Z,97984.00
2019-05-16T09:47:27.931Z,97975.72
2019-05-16T09:49:58.122Z,97971.07
2019-05-16T09:52:30.939Z,97970.80
2019-05-16T09:55:02.407Z,97970.19
2019-05-16T09:57:33.814Z,97965.29
2019-05-16T10:00:08.247Z,97964.68
2019-05-16T10:02:39.305Z,97958.45
2019-05-16T10:05:13.504Z,97957.56
2019-05-16T10:07:47.047Z,97961.07
2019-05-16T10:10:17.740Z,97961.41
2019-05-16T10:12:49.084Z,97958.92
2019-05-16T10:15:20.674Z,97965.04
2019-05-16T10:17:52.030Z,97964.21
2019-05-16T10:20:23.201Z,97966.23
2019-05-16T10:22:57.694Z,97959.75
2019-05-16T10:25:27.925Z,97960.08
2019-05-16T10:27:58.827Z,97957.11
2019-05-16T10:30:30.456Z,97961.41
2019-05-16T10:33:01.678Z,97963.42
2019-05-16T10:35:32.696Z,97961.07
2019-05-16T10:38:03.678Z,97956.94
2019-05-16T10:40:36.894Z,97958.06
2019-05-16T10:43:07.794Z,97958.85
2019-05-16T10:45:38.971Z,97962.75
2019-05-16T10:48:10.162Z,97957.61
2019-05-16T10:50:41.313Z,97959.27
2019-05-16T10:53:32.434Z,97958.23
2019-05-16T10:55:47.601Z,97957.03
2019-05-16T10:58:35.405Z,97955.83
2019-05-16T11:03:24.557Z,97954.06
2019-05-16T11:06:02.980Z,97956.96
2019-05-16T11:08:28.739Z,97960.17
2019-05-16T11:11:00.148Z,97953.39
2019-05-16T11:13:31.612Z,97959.44
2019-05-16T11:16:02.614Z,97958.94
2019-05-16T11:18:33.818Z,97958.25
2019-05-16T11:21:04.785Z,97959.45
2019-05-16T11:23:36.707Z,97962.53
2019-05-16T11:26:08.271Z,97960.88
2019-05-16T11:28:39.543Z,97959.80
2019-05-16T11:31:10.569Z,97955.30
2019-05-16T11:33:41.796Z,97957.33
2019-05-16T11:36:13.225Z,97951.39
2019-05-16T11:38:47.250Z,97951.13
2019-05-16T11:41:17.640Z,97950.31
2019-05-16T11:43:48.984Z,97950.13
2019-05-16T11:46:20.083Z,97954.61
2019-05-16T11:48:51.253Z,97952.62
2019-05-16T11:51:22.312Z,97946.68
2019-05-16T11:53:53.602Z,97949.37
2019-05-16T11:56:24.866Z,97954.49
2019-05-16T11:58:57.057Z,97957.56
2019-05-16T12:01:28.396Z,97960.91
2019-05-16T12:04:00.017Z,97967.48
2019-05-16T12:06:31.255Z,97965.49
2019-05-16T12:09:02.232Z,97968.73
2019-05-16T12:11:33.375Z,97965.94
2019-05-16T12:14:04.412Z,97969.61
2019-05-16T12:16:37.902Z,97972.09
2019-05-16T12:19:09.064Z,97973.44
2019-05-16T12:21:40.084Z,97967.33
2019-05-16T12:24:11.437Z,97969.89
2019-05-16T12:26:43.137Z,97964.44
2019-05-16T12:29:17.146Z,97961.89
2019-05-16T12:31:57.843Z,97962.20
2019-05-16T12:34:20.217Z,97961.48
2019-05-16T12:36:51.580Z,97952.86
2019-05-16T12:39:23.096Z,97959.94
2019-05-16T12:41:58.523Z,97953.49
2019-05-16T12:44:27.040Z,97955.17
2019-05-16T12:46:58.477Z,97952.17
2019-05-16T12:49:29.625Z,97953.03
2019-05-16T12:52:00.863Z,97951.84
2019-05-16T12:54:32.102Z,97952.66
2019-05-16T12:57:03.610Z,97949.97
2019-05-16T12:59:36.669Z,97952.45
2019-05-16T13:02:07.695Z,97952.33
2019-05-16T13:04:39.217Z,97941.67
2019-05-16T13:07:10.315Z,97947.49
2019-05-16T13:09:41.358Z,97939.87
2019-05-16T13:12:13.895Z,97932.27
2019-05-16T13:14:45.023Z,97927.50
2019-05-16T13:17:16.709Z,97929.59
2019-05-16T13:19:48.373Z,97926.58
2019-05-16T13:22:19.743Z,97925.08
2019-05-16T13:24:51.109Z,97922.09
2019-05-16T13:27:23.735Z,97923.45
2019-05-16T13:29:57.892Z,97917.88
2019-05-16T13:32:28.021Z,97917.72
2019-05-16T13:34:59.411Z,97919.68
2019-05-16T13:37:30.880Z,97929.05
2019-05-16T13:40:02.614Z,97922.92
2019-05-16T13:42:33.896Z,97919.22
2019-05-16T13:45:07.173Z,97916.66
2019-05-16T13:47:38.362Z,97912.73
2019-05-16T13:50:12.299Z,97914.27
2019-05-16T13:52:43.069Z,97916.38
2019-05-16T13:55:16.752Z,97914.04
2019-05-16T13:57:48.047Z,97914.03
2019-05-16T14:00:20.181Z,97910.48
2019-05-16T14:02:51.634Z,97917.95
2019-05-16T14:05:22.890Z,97923.37
2019-05-16T14:07:57.281Z,97919.23
2019-05-16T14:10:29.687Z,97912.09
2019-05-16T14:13:02.015Z,97905.02
2019-05-16T14:15:33.147Z,97904.33
2019-05-16T14:18:04.335Z,97904.27
2019-05-16T14:20:37.908Z,97897.48
2019-05-16T14:23:09.028Z,97895.20
2019-05-16T14:25:40.171Z,97899.19
2019-05-16T14:28:12.110Z,97892.89
2019-05-16T14:30:46.809Z,97884.91
2019-05-16T14:33:17.417Z,97882.52
2019-05-16T14:35:48.473Z,97884.80
2019-05-16T14:38:19.725Z,97879.94
2019-05-16T14:40:50.965Z,97882.05
2019-05-16T14:43:23.004Z,97877.06
2019-05-16T14:45:54.314Z,97874.69
2019-05-16T14:48:27.891Z,97877.41
2019-05-16T14:50:58.623Z,97873.55
2019-05-16T14:53:30.037Z,97863.53
2019-05-16T14:56:01.399Z,97866.77
2019-05-16T14:58:32.731Z,97863.20
2019-05-16T15:01:03.946Z,97857.77
2019-05-16T15:03:36.605Z,97857.06
2019-05-16T15:06:08.786Z,97853.64
2019-05-16T15:08:39.900Z,97859.52
2019-05-16T15:11:12.772Z,97855.48
2019-05-16T15:13:43.911Z,97863.12
2019-05-16T15:16:17.047Z,97864.14
2019-05-16T15:18:48.852Z,97861.93
2019-05-16T15:21:19.954Z,97855.29
2019-05-16T15:23:51.118Z,97850.30
2019-05-16T15:26:23.324Z,97846.95
2019-05-16T15:28:54.653Z,97853.95
2019-05-16T15:31:25.747Z,97851.37
2019-05-16T15:33:57.248Z,97843.52
2019-05-16T15:36:28.639Z,97846.27
2019-05-16T15:39:00.143Z,97844.94
2019-05-16T15:41:33.052Z,97846.33
2019-05-16T15:44:07.554Z,97845.41
2019-05-16T15:46:39.176Z,97838.08
2019-05-16T15:49:10.575Z,97839.27
2019-05-16T15:51:43.153Z,97826.19
2019-05-16T15:54:18.778Z,97825.19
2019-05-16T15:56:51.746Z,97817.27
2019-05-16T15:59:22.944Z,97819.78
2019-05-16T16:01:53.858Z,97815.31
2019-05-16T16:04:27.069Z,97807.94
2019-05-16T16:06:57.847Z,97804.16
2019-05-16T16:09:29.210Z,97808.48
2019-05-16T16:12:02.011Z,97806.80
2019-05-16T16:14:33.455Z,97805.47
2019-05-16T16:17:06.617Z,97804.50
2019-05-16T16:19:37.590Z,97805.70
2019-05-16T16:22:09.308Z,97808.90
2019-05-16T16:24:40.567Z,97798.83
2019-05-16T16:27:12.059Z,97799.00
2019-05-16T16:29:42.957Z,97792.41
2019-05-16T16:32:17.207Z,97799.42
2019-05-16T16:34:48.933Z,97799.92
2019-05-16T16:37:20.132Z,97797.95
2019-05-16T16:39:51.050Z,97802.12
2019-05-16T16:42:22.403Z,97799.52
2019-05-16T16:44:53.591Z,97794.88
2019-05-16T16:47:26.916Z,97787.97
2019-05-16T16:49:59.290Z,97787.95
2019-05-16T16:52:30.625Z,97791.45
2019-05-16T16:55:01.783Z,97788.63
2019-05-16T16:57:32.924Z,97793.26
2019-05-16T17:00:07.514Z,97783.53
2019-05-16T17:02:38.617Z,97787.33
2019-05-16T17:05:13.092Z,97782.52
2019-05-16T17:07:44.059Z,97780.69
2019-05-16T17:10:17.608Z,97779.03
2019-05-16T17:12:48.681Z,97775.73
2019-05-16T17:15:20.280Z,97776.89
2019-05-16T17:17:51.368Z,97772.59
2019-05-16T17:20:24.229Z,97776.37
2019-05-16T17:22:57.221Z,97781.00
2019-05-16T17:25:28.229Z,97777.70
2019-05-16T17:27:59.768Z,97786.91
2019-05-16T17:30:30.891Z,97787.21
2019-05-16T17:33:02.443Z,97794.79
2019-05-16T17:35:33.688Z,97792.61
2019-05-16T17:38:06.693Z,97800.02
2019-05-16T17:40:38.689Z,97801.47
2019-05-16T17:43:09.898Z,97804.56
2019-05-16T17:45:41.153Z,97800.23
2019-05-16T17:48:12.476Z,97807.63
2019-05-16T17:50:43.688Z,97813.06
2019-05-16T17:53:17.316Z,97807.23
2019-05-16T17:55:48.015Z,97810.78
2019-05-16T17:58:19.215Z,97805.45
2019-05-16T18:00:50.701Z,97807.20
2019-05-16T18:03:21.907Z,97806.16
2019-05-16T18:05:53.168Z,97805.27
2019-05-16T18:08:24.423Z,97806.34
2019-05-16T18:10:56.494Z,97808.92
2019-05-16T18:13:28.030Z,97804.25
2019-05-16T18:15:59.163Z,97803.68
2019-05-16T18:18:30.166Z,97802.19
2019-05-16T18:21:02.368Z,97809.11
2019-05-16T18:23:33.742Z,97810.08
2019-05-16T18:26:07.436Z,97812.66
2019-05-16T18:28:38.119Z,97822.53
2019-05-16T18:31:09.653Z,97824.75
2019-05-16T18:33:40.852Z,97822.09
2019-05-16T18:36:12.075Z,97825.34
2019-05-16T18:38:43.328Z,97818.69
2019-05-16T18:41:16.491Z,97811.06
2019-05-16T18:43:48.236Z,97808.42
2019-05-16T18:46:19.670Z,97815.50
2019-05-16T18:48:50.736Z,97814.50
2019-05-16T18:51:21.744Z,97819.25
2019-05-16T18:53:53.448Z,97823.81
2019-05-16T18:56:27.045Z,97811.93
2019-05-16T18:58:57.739Z,97817.69
2019-05-16T19:01:28.816Z,97821.13
2019-05-16T19:03:59.821Z,97819.59
2019-05-16T19:06:31.519Z,97821.70
2019-05-16T19:09:02.613Z,97824.00
2019-05-16T19:11:33.608Z,97822.62
2019-05-16T19:14:07.424Z,97823.84
2019-05-16T19:16:37.935Z,97828.67
2019-05-16T19:19:10.576Z,97833.49
2019-05-16T19:21:41.725Z,97826.09
2019-05-16T19:24:12.763Z,97825.67
2019-05-16T19:26:43.978Z,97830.56
2019-05-16T19:29:17.185Z,97819.13
2019-05-16T19:31:50.470Z,97814.66
2019-05-16T19:34:21.009Z,97813.90
2019-05-16T19:36:52.276Z,97814.39
2019-05-16T19:39:23.535Z,97822.84
2019-05-16T19:41:57.101Z,97814.56
2019-05-16T19:44:27.650Z,97822.87
2019-05-16T19:46:58.791Z,97823.36
2019-05-16T19:49:29.898Z,97820.09
2019-05-16T19:52:01.030Z,97812.14
2019-05-16T19:54:32.264Z,97815.12
2019-05-16T19:57:03.340Z,97811.47
2019-05-16T19:59:36.579Z,97810.49
2019-05-16T20:02:10.125Z,97807.52
2019-05-16T20:04:41.388Z,97803.50
2019-05-16T20:07:12.764Z,97802.96
2019-05-16T20:09:43.873Z,97797.02
2019-05-16T20:12:16.882Z,97798.82
2019-05-16T20:14:47.914Z,97794.80
2019-05-16T20:17:19.444Z,97799.38
2019-05-16T20:19:50.705Z,97792.80
2019-05-16T20:22:23.250Z,97791.14
2019-05-16T20:24:56.171Z,97791.14
2019-05-16T20:27:27.537Z,97792.17
2019-05-16T20:29:59.413Z,97791.83
2019-05-16T20:32:32.054Z,97789.41
2019-05-16T20:35:03.106Z,97784.78
2019-05-16T20:37:36.674Z,97782.02
2019-05-16T20:40:09.897Z,97783.89
2019-05-16T20:42:41.428Z,97788.89
2019-05-16T20:45:12.884Z,97794.16
2019-05-16T20:47:44.889Z,97793.44
2019-05-16T20:50:16.949Z,97796.84
2019-05-16T20:52:48.695Z,97801.81
2019-05-16T20:55:20.155Z,97801.55
2019-05-16T20:57:51.298Z,97804.67
2019-05-16T21:00:22.851Z,97806.23
2019-05-16T21:02:53.914Z,97805.64
2019-05-16T21:05:26.808Z,97805.16
2019-05-16T21:07:58.147Z,97799.52
2019-05-16T21:10:29.264Z,97808.04
2019-05-16T21:13:02.636Z,97800.84
2019-05-16T21:15:33.688Z,97798.84
2019-05-16T21:18:07.325Z,97800.64
2019-05-16T21:20:38.962Z,97804.44
2019-05-16T21:23:10.477Z,97798.84
2019-05-16T21:25:41.725Z,97807.90
2019-05-16T21:28:12.764Z,97802.64
2019-05-16T21:30:43.910Z,97802.50
2019-05-16T21:33:16.536Z,97798.55
2019-05-16T21:35:48.191Z,97794.27
2019-05-16T21:38:19.603Z,97788.67
2019-05-16T21:40:50.613Z,97791.78
2019-05-16T21:43:21.770Z,97796.07
2019-05-16T21:45:53.014Z,97801.76
2019-05-16T21:48:24.324Z,97793.78
2019-05-16T21:50:57.034Z,97791.09
2019-05-16T21:53:30.099Z,97791.16
2019-05-16T21:56:00.999Z,97787.64
2019-05-16T21:58:32.107Z,97793.63
2019-05-16T22:01:06.989Z,97795.58
2019-05-16T22:03:38.113Z,97791.58
2019-05-16T22:06:09.356Z,97790.77
2019-05-16T22:08:40.494Z,97791.73
2019-05-16T22:11:11.733Z,97795.12
2019-05-16T22:13:43.147Z,97794.89
2019-05-16T22:16:17.354Z,97786.27
2019-05-16T22:18:47.580Z,97788.80
2019-05-16T22:21:18.857Z,97784.79
2019-05-16T22:23:49.959Z,97779.92
2019-05-16T22:26:21.611Z,97782.34
2019-05-16T22:28:52.824Z,97776.06
2019-05-16T22:31:24.081Z,97777.72
2019-05-16T22:33:55.198Z,97774.38
2019-05-16T22:36:26.668Z,97767.95
2019-05-16T22:38:59.686Z,97768.44
2019-05-16T22:41:30.833Z,97765.26
2019-05-16T22:44:01.778Z,97766.34
2019-05-16T22:46:33.120Z,97761.23
2019-05-16T22:49:07.636Z,97762.33
2019-05-16T22:51:39.229Z,97763.09
2019-05-16T22:54:10.439Z,97766.69
2019-05-16T22:56:41.989Z,97763.69
2019-05-16T22:59:13.146Z,97755.47
2019-05-16T23:01:44.315Z,97757.61
2019-05-16T23:04:16.828Z,97751.87
2019-05-16T23:06:48.217Z,97748.56
2019-05-16T23:09:19.321Z,97746.28
2019-05-16T23:11:50.502Z,97745.73
2019-05-16T23:14:21.548Z,97742.28
2019-05-16T23:16:52.879Z,97741.11
2019-05-16T23:19:26.385Z,97732.41
2019-05-16T23:21:57.479Z,97735.63
2019-05-16T23:24:29.839Z,97731.83
2019-05-16T23:27:01.949Z,97731.48
2019-05-16T23:29:33.101Z,97725.20
2019-05-16T23:32:04.204Z,97718.05
2019-05-16T23:34:37.366Z,97722.13
2019-05-16T23:37:08.195Z,97724.20
2019-05-16T23:39:39.490Z,97723.27
2019-05-16T23:42:10.918Z,97726.45
2019-05-16T23:44:42.171Z,97732.07
2019-05-16T23:47:13.605Z,97730.34
2019-05-16T23:49:47.145Z,97728.80
2019-05-16T23:52:18.834Z,97731.34
2019-05-16T23:54:51.591Z,97724.69
2019-05-16T23:57:22.442Z,97730.06
2019-05-16T23:59:53.453Z,97729.02
